createdAt,value
2022-12-23T00:00:00.132Z,12.4
2022-12-23T00:05:00.139Z,11.1
2022-12-23T00:10:00.136Z,13.3
2022-12-23T00:15:00.152Z,15
2022-12-23T00:20:00.153Z,12.7
2022-12-23T00:25:00.134Z,14.8
2022-12-23T00:30:00.136Z,14.8
2022-12-23T00:35:00.149Z,9.5
2022-12-23T00:40:06.061Z,8.8
2022-12-23T00:45:00.123Z,12.2
2022-12-23T00:50:00.143Z,5.2
2022-12-23T00:55:00.118Z,8.7
2022-12-23T01:00:00.171Z,8.7
2022-12-23T01:05:00.151Z,10.6
2022-12-23T01:10:00.120Z,7.9
2022-12-23T01:15:00.121Z,11.8
2022-12-23T01:20:00.096Z,9.6
2022-12-23T01:25:00.122Z,12.5
2022-12-23T01:30:00.109Z,12.5
2022-12-23T01:35:00.126Z,13.3
2022-12-23T01:40:00.122Z,16.8
2022-12-23T01:45:00.131Z,16.1
2022-12-23T01:50:00.134Z,16.7
2022-12-23T01:55:00.103Z,19.1
2022-12-23T02:00:00.126Z,19.1
2022-12-23T02:05:00.162Z,13.9
2022-12-23T02:10:00.163Z,10.7
2022-12-23T02:15:00.113Z,16.4
2022-12-23T02:20:00.132Z,11.2
2022-12-23T02:25:00.108Z,11.8
2022-12-23T02:30:00.129Z,11.8
2022-12-23T02:35:00.155Z,10.8
2022-12-23T02:40:00.124Z,12.1
2022-12-23T02:45:00.127Z,9.9
2022-12-23T02:50:00.124Z,14.3
2022-12-23T02:55:00.132Z,21.7
2022-12-23T03:00:00.114Z,21.7
2022-12-23T03:05:01.090Z,18.3
2022-12-23T03:10:00.116Z,17.7
2022-12-23T03:15:00.134Z,16.8
2022-12-23T03:20:00.136Z,26.1
2022-12-23T03:25:00.110Z,14.7
2022-12-23T03:30:00.124Z,14.7
2022-12-23T03:35:00.136Z,42.8
2022-12-23T03:40:00.132Z,15.2
2022-12-23T03:45:19.568Z,32.9
2022-12-23T03:50:00.188Z,51.1
2022-12-23T03:55:00.102Z,49.8
2022-12-23T04:00:00.096Z,49.8
2022-12-23T04:05:00.155Z,14.2
2022-12-23T04:10:00.124Z,8.6
2022-12-23T04:15:00.103Z,9.4
2022-12-23T04:20:00.134Z,11.6
2022-12-23T04:25:00.107Z,9.4
2022-12-23T04:30:00.190Z,9.4
2022-12-23T04:35:00.176Z,7.2
2022-12-23T04:40:00.209Z,7.1
2022-12-23T04:45:00.120Z,6.9
2022-12-23T04:50:00.108Z,8.2
2022-12-23T04:55:00.136Z,5.6
2022-12-23T05:00:00.129Z,5.6
2022-12-23T05:05:00.115Z,8.2
2022-12-23T05:10:00.129Z,5.5
2022-12-23T05:15:00.118Z,6
2022-12-23T05:20:00.155Z,6.3
2022-12-23T05:25:00.137Z,5.8
2022-12-23T05:30:00.148Z,5.8
2022-12-23T05:35:00.124Z,6
2022-12-23T05:40:00.121Z,7
2022-12-23T05:45:00.107Z,5.1
2022-12-23T05:50:00.130Z,10
2022-12-23T05:55:00.112Z,10.7
2022-12-23T06:00:00.126Z,10.7
2022-12-23T06:05:00.100Z,13.5
2022-12-23T06:10:00.131Z,13.7
2022-12-23T06:15:00.103Z,18.8
2022-12-23T06:20:00.120Z,14.7
2022-12-23T06:25:00.147Z,13.2
2022-12-23T06:30:00.112Z,13.2
2022-12-23T06:35:00.104Z,17.2
2022-12-23T06:40:00.143Z,16.5
2022-12-23T06:45:00.132Z,14.3
2022-12-23T06:50:00.119Z,19.4
2022-12-23T06:55:00.104Z,16.1
2022-12-23T07:00:00.104Z,16.1
2022-12-23T07:05:00.103Z,10
2022-12-23T07:10:00.206Z,8.8
2022-12-23T07:15:00.141Z,4.5
2022-12-23T07:20:00.156Z,4.1
2022-12-23T07:25:00.109Z,2.6
2022-12-23T07:30:00.113Z,2.6
2022-12-23T07:35:00.118Z,5
2022-12-23T07:40:05.143Z,3.3
2022-12-23T07:45:00.124Z,3
2022-12-23T07:50:00.165Z,8.1
2022-12-23T07:55:00.123Z,6.5
2022-12-23T08:00:00.110Z,6.5
2022-12-23T08:05:00.223Z,6.2
2022-12-23T08:10:00.092Z,4
2022-12-23T08:15:00.085Z,5.1
2022-12-23T08:20:00.114Z,3.8
2022-12-23T08:25:00.101Z,4.9
2022-12-23T08:30:00.106Z,4.9
2022-12-23T08:35:00.121Z,5.6
2022-12-23T08:40:00.093Z,4.8
2022-12-23T08:45:00.087Z,4.6
2022-12-23T08:50:00.127Z,4.9
2022-12-23T08:55:00.118Z,3
2022-12-23T09:00:00.124Z,3
2022-12-23T09:05:00.146Z,4
2022-12-23T09:10:00.118Z,2.4
2022-12-23T09:15:00.291Z,2.8
2022-12-23T09:20:00.137Z,2.7
2022-12-23T09:25:04.935Z,6.3
2022-12-23T09:30:00.098Z,6.3
2022-12-23T09:35:00.122Z,5.7
2022-12-23T09:40:00.160Z,6.3
2022-12-23T09:45:00.148Z,5
2022-12-23T09:50:00.230Z,6
2022-12-23T09:55:00.228Z,9.3
2022-12-23T10:00:00.372Z,9.3
2022-12-23T10:05:00.341Z,7
2022-12-23T10:10:00.249Z,9.3
2022-12-23T10:15:00.418Z,9.9
2022-12-23T10:20:00.400Z,8
2022-12-23T10:25:00.118Z,10.9
2022-12-23T10:30:09.610Z,10.9
2022-12-23T10:35:00.132Z,10.4
2022-12-23T10:40:00.125Z,12.5
2022-12-23T10:45:00.107Z,12.1
2022-12-23T10:50:00.156Z,16.1
2022-12-23T10:55:00.150Z,12.1
2022-12-23T11:00:00.106Z,12.1
2022-12-23T11:05:00.116Z,11.6
2022-12-23T11:10:00.104Z,16.5
2022-12-23T11:15:00.128Z,15.2
2022-12-23T11:20:00.120Z,11.3
2022-12-23T11:25:00.145Z,13.9
2022-12-23T11:30:00.139Z,13.9
2022-12-23T11:35:00.168Z,14.5
2022-12-23T11:40:00.161Z,14.9
2022-12-23T11:45:00.147Z,15
2022-12-23T11:50:00.123Z,13.9
2022-12-23T11:55:00.100Z,13.8
2022-12-23T12:00:00.113Z,13.8
2022-12-23T12:05:00.114Z,16.3
2022-12-23T12:10:00.137Z,14.3
2022-12-23T12:15:00.114Z,16.8
2022-12-23T12:20:00.149Z,16.1
2022-12-23T12:25:00.131Z,17.5
2022-12-23T12:30:03.243Z,17.5
2022-12-23T12:35:00.164Z,19.6
2022-12-23T12:40:00.103Z,15.5
2022-12-23T12:45:00.163Z,21.1
2022-12-23T12:50:00.137Z,26
2022-12-23T12:55:00.120Z,20
2022-12-23T13:00:05.859Z,20
2022-12-23T13:05:00.137Z,16.7
2022-12-23T13:10:00.127Z,13.8
2022-12-23T13:15:00.112Z,12.5
2022-12-23T13:20:00.118Z,14
2022-12-23T13:25:00.132Z,10.7
2022-12-23T13:30:00.110Z,10.7
2022-12-23T13:35:00.131Z,10.1
2022-12-23T13:40:00.119Z,10.4
2022-12-23T13:45:00.123Z,8.7
2022-12-23T13:50:00.134Z,9.2
2022-12-23T13:55:00.137Z,8.9
2022-12-23T14:00:05.157Z,8.9
2022-12-23T14:05:00.131Z,10.3
2022-12-23T14:10:00.108Z,10.9
2022-12-23T14:15:00.100Z,13
2022-12-23T14:20:00.116Z,20.2
2022-12-23T14:25:00.132Z,14.2
2022-12-23T14:30:05.434Z,14.2
2022-12-23T14:35:00.111Z,11.7
2022-12-23T14:40:00.118Z,13.5
2022-12-23T14:45:00.107Z,12.3
2022-12-23T14:50:00.120Z,17.1
2022-12-23T14:55:28.262Z,18.3
2022-12-23T15:00:00.111Z,18.3
2022-12-23T15:05:00.130Z,14.5
2022-12-23T15:10:01.185Z,14.7
2022-12-23T15:15:00.145Z,11.7
2022-12-23T15:20:00.132Z,14.2
2022-12-23T15:25:00.136Z,14
2022-12-23T15:30:00.124Z,14
2022-12-23T15:35:00.123Z,18.4
2022-12-23T15:40:09.883Z,18.8
2022-12-23T15:45:00.112Z,12.3
2022-12-23T15:50:00.242Z,10.5
2022-12-23T15:55:00.122Z,12.4
2022-12-23T16:00:00.208Z,12.4
2022-12-23T16:05:00.143Z,11.5
2022-12-23T16:10:00.155Z,15.2
2022-12-23T16:15:00.115Z,12.2
2022-12-23T16:20:00.112Z,13.2
2022-12-23T16:25:00.138Z,11.1
2022-12-23T16:30:00.126Z,11.1
2022-12-23T16:35:00.111Z,13.2
2022-12-23T16:40:00.126Z,12.8
2022-12-23T16:45:00.146Z,14.4
2022-12-23T16:50:00.104Z,11.7
2022-12-23T16:55:00.121Z,9.2
2022-12-23T17:00:00.122Z,9.2
2022-12-23T17:05:00.132Z,10.9
2022-12-23T17:10:00.097Z,9.9
2022-12-23T17:15:00.125Z,8.4
2022-12-23T17:20:00.104Z,5.9
2022-12-23T17:25:00.125Z,6.3
2022-12-23T17:30:00.123Z,6.3
2022-12-23T17:35:00.162Z,4.9
2022-12-23T17:40:00.131Z,4.6
2022-12-23T17:45:00.124Z,3.9
2022-12-23T17:50:00.132Z,4.3
2022-12-23T17:55:00.109Z,5.8
2022-12-23T18:00:00.125Z,5.8
2022-12-23T18:05:00.115Z,4.7
2022-12-23T18:10:00.101Z,4.7
2022-12-23T18:15:00.117Z,4.2
2022-12-23T18:20:00.142Z,1.4
2022-12-23T18:25:00.126Z,1.2
2022-12-23T18:30:00.129Z,1.2
2022-12-23T18:35:00.104Z,1.5
2022-12-23T18:40:00.256Z,1.2
2022-12-23T18:45:00.115Z,1.1
2022-12-23T18:50:00.114Z,1.3
2022-12-23T18:55:00.102Z,0.8
2022-12-23T19:00:00.097Z,0.8
2022-12-23T19:05:00.119Z,1.4
2022-12-23T19:10:00.127Z,1.1
2022-12-23T19:15:00.107Z,1.6
2022-12-23T19:20:00.108Z,1.3
2022-12-23T19:25:05.656Z,1.1
2022-12-23T19:30:00.117Z,1.1
2022-12-23T19:35:00.176Z,2
2022-12-23T19:40:00.125Z,1.6
2022-12-23T19:45:00.100Z,1.8
2022-12-23T19:50:00.123Z,1.3
2022-12-23T19:55:00.128Z,5.8
2022-12-23T20:00:00.113Z,5.8
2022-12-23T20:05:00.168Z,3.1
2022-12-23T20:10:00.118Z,4.1
2022-12-23T20:15:00.134Z,2.5
2022-12-23T20:20:00.155Z,2
2022-12-23T20:25:00.112Z,3.2
2022-12-23T20:30:00.115Z,3.2
2022-12-23T20:35:00.110Z,3.9
2022-12-23T20:40:00.116Z,4.4
2022-12-23T20:45:00.185Z,3.4
2022-12-23T20:50:00.132Z,6.1
2022-12-23T20:55:00.127Z,6.2
2022-12-23T21:00:00.360Z,6.2
2022-12-23T21:05:00.133Z,7.4
2022-12-23T21:10:00.108Z,10.4
2022-12-23T21:40:00.151Z,6
2022-12-23T21:45:00.114Z,10.2
2022-12-23T21:50:00.195Z,6
2022-12-23T21:55:00.119Z,9.9
2022-12-23T22:00:00.130Z,9.9
2022-12-23T22:05:00.118Z,11.1
2022-12-23T22:10:00.107Z,5.9
2022-12-23T22:15:00.662Z,7.7
2022-12-23T22:20:00.101Z,6.3
2022-12-23T22:25:00.191Z,7.5
2022-12-23T22:30:00.130Z,7.5
2022-12-23T22:35:00.129Z,8.1
2022-12-23T22:40:00.115Z,8.1
2022-12-23T22:45:00.111Z,7.3
2022-12-23T22:50:00.114Z,9.9
2022-12-23T22:55:00.102Z,12
2022-12-23T23:00:02.381Z,12
2022-12-23T23:05:00.185Z,8.6
2022-12-23T23:10:00.109Z,14.7
2022-12-23T23:15:00.117Z,9.9
2022-12-23T23:20:00.128Z,11.5
2022-12-23T23:25:00.185Z,10.6
2022-12-23T23:30:00.095Z,10.6
2022-12-23T23:35:01.953Z,7.8
2022-12-23T23:40:00.137Z,9.2
2022-12-23T23:45:00.169Z,11.1
2022-12-23T23:50:00.134Z,12.7
2022-12-23T23:55:00.105Z,9
